»·PEaware :: DAL213 MSLP-MHTG

DAL213 :: MSLP-MHTG

FLIGHT INFORMATION

Flight Status: Arrived
Operator:
Delta Air Lines
More flights by this operator :: More flights under this callsign
Pilot: Nico L. (9332)
Aircraft: BOEING 737-800
(B738)
More flights by this aircraft type
Origin: MSLP El Salvador Intl
El Salvador
Destination: MHTG Toncontin Intl
Honduras
More flights between these airports :: More routes between these airports
Route: TNT
File this flight plan on PilotEdge
Remarks: Live Streaming on Twitch "DAL213" and YT
Altitude:
(Current/Filed)
18,000ft
Speed:
(Current/Filed)
400kts
Departed: 02-Jun-19 06:15 PM
Arrived: 02-Jun-19 06:41 PM
Distance/Time
Traveled:
24nm/0:26
Distance/Time
To Go:
Arrived

Flight Plot

Page will automatically refresh every two minutes.

Flight plan parsing failed; only flown route is shown


Map Options




Map Legend


Flown Route
Filed Route
Departure Airport
Arrival Airport
Navaid (VOR, NDB)
Fix

Horizontal Profiles

Position Reports

Time Latitude Longitude Heading Altitude Ground
Speed
02-Jun-19 18:03 13.443371 -89.058810 340 110ft 0kts
02-Jun-19 18:04 13.443371 -89.058810 340 110ft 0kts
02-Jun-19 18:05 13.443371 -89.058810 340 110ft 0kts
02-Jun-19 18:06 13.443371 -89.058810 340 110ft 0kts
02-Jun-19 18:07 13.443371 -89.058810 340 110ft 0kts
02-Jun-19 18:08 13.442878 -89.058791 20 110ft 2kts
02-Jun-19 18:09 13.442532 -89.059045 49 110ft 0kts
02-Jun-19 18:10 13.442533 -89.059043 49 110ft 0kts
02-Jun-19 18:11 13.442535 -89.059041 49 110ft 0kts
02-Jun-19 18:12 13.441392 -89.059831 242 110ft 19kts
02-Jun-19 18:13 13.438616 -89.067478 248 110ft 28kts
02-Jun-19 18:14 13.436997 -89.066744 68 110ft 70kts
02-Jun-19 18:15 13.451345 -89.026390 68 2013ft 188kts
02-Jun-19 18:16 13.472621 -88.966899 68 4602ft 256kts
02-Jun-19 18:17 13.497955 -88.892224 76 8095ft 287kts
02-Jun-19 18:18 13.516408 -88.808776 77 11073ft 325kts
02-Jun-19 18:19 13.537053 -88.713711 77 14241ft 349kts
02-Jun-19 18:20 13.558545 -88.614524 77 17395ft 363kts
02-Jun-19 18:21 13.581374 -88.508866 77 18070ft 388kts
02-Jun-19 18:22 13.604868 -88.399942 76 18076ft 389kts
02-Jun-19 18:23 13.631208 -88.292201 69 18075ft 389kts
02-Jun-19 18:24 13.674087 -88.189707 66 18072ft 389kts
02-Jun-19 18:25 13.717685 -88.088080 66 18089ft 388kts
02-Jun-19 18:26 13.761237 -87.986474 66 18072ft 390kts
02-Jun-19 18:27 13.805027 -87.884149 66 18072ft 389kts
02-Jun-19 18:28 13.847891 -87.783929 66 16206ft 378kts
02-Jun-19 18:29 13.862208 -87.673849 88 14511ft 390kts
02-Jun-19 18:30 13.864826 -87.568180 87 13082ft 359kts
02-Jun-19 18:31 13.866602 -87.467193 88 11080ft 347kts
02-Jun-19 18:32 13.866789 -87.377749 87 9417ft 279kts
02-Jun-19 18:33 13.876257 -87.297047 61 8953ft 304kts
02-Jun-19 18:34 13.950221 -87.256121 17 7022ft 300kts
02-Jun-19 18:35 14.020481 -87.230716 23 5404ft 236kts
02-Jun-19 18:36 14.072620 -87.210495 22 4007ft 171kts
02-Jun-19 18:37 14.086007 -87.232216 213 4252ft 156kts
02-Jun-19 18:38 14.050787 -87.250355 174 3916ft 141kts
02-Jun-19 18:39 14.053220 -87.219965 20 3337ft 137kts
02-Jun-19 18:40 14.065458 -87.216480 198 3303ft 12kts
02-Jun-19 18:41 14.062589 -87.217519 198 3303ft 10kts
02-Jun-19 18:42 14.060660 -87.218193 198 3303ft 0kts
02-Jun-19 18:43 14.060642 -87.218199 198 3303ft 0kts
02-Jun-19 18:44 14.060642 -87.218199 198 3303ft 0kts
02-Jun-19 18:45 14.060642 -87.218199 198 3303ft 0kts
02-Jun-19 18:46 13.436047 -89.069420 69 110ft 0kts
02-Jun-19 18:47 13.436048 -89.069417 69 110ft 0kts
02-Jun-19 18:48 13.436049 -89.069415 69 110ft 0kts
02-Jun-19 18:49 13.436050 -89.069412 69 110ft 0kts
02-Jun-19 18:50 13.443066 -89.050000 68 481ft 167kts
02-Jun-19 18:51 13.460934 -88.999331 67 3414ft 220kts
02-Jun-19 18:52 13.480850 -88.929490 76 6368ft 279kts
02-Jun-19 18:53 13.500037 -88.849439 76 10202ft 296kts
02-Jun-19 18:54 13.521759 -88.759065 75 12981ft 343kts
02-Jun-19 18:55 13.545066 -88.661907 75 16360ft 358kts

Navigation Log

Ident Type
Flight plan parsing failed, navigation log unavailable